createdAt,value
2022-12-27T00:02:11.977Z,0.5
2022-12-27T00:07:20.054Z,0.6
2022-12-27T00:12:31.397Z,0.5
2022-12-27T00:17:42.168Z,0.5
2022-12-27T00:28:14.619Z,0.5
2022-12-27T00:33:27.625Z,0.5
2022-12-27T00:38:37.772Z,0.7
2022-12-27T00:43:51.999Z,0.6
2022-12-27T00:49:03.368Z,0.7
2022-12-27T00:59:36.736Z,1.1
2022-12-27T01:04:48.233Z,0.9
2022-12-27T01:10:00.406Z,1
2022-12-27T01:15:12.065Z,1.3
2022-12-27T01:20:26.009Z,0.9
2022-12-27T01:30:56.212Z,0.7
2022-12-27T01:36:05.617Z,0.6
2022-12-27T01:41:17.874Z,0.4
2022-12-27T01:51:50.606Z,0.4
2022-12-27T02:02:23.667Z,0.4
2022-12-27T02:18:21.325Z,0
2022-12-27T02:23:40.246Z,0.1
2022-12-27T02:28:43.714Z,0.1
2022-12-27T02:33:56.268Z,0.1
2022-12-27T02:39:07.754Z,0.3
2022-12-27T02:44:20.001Z,0.5
2022-12-27T02:49:31.392Z,0.5
2022-12-27T02:54:42.956Z,0.6
2022-12-27T03:05:17.083Z,0.3
2022-12-27T03:10:33.585Z,0.4
2022-12-27T03:15:44.865Z,0.5
2022-12-27T03:20:54.073Z,0.5
2022-12-27T03:26:05.532Z,0.4
2022-12-27T03:31:17.828Z,0.5
2022-12-27T03:36:29.359Z,0.8
2022-12-27T03:41:39.418Z,0.5
2022-12-27T03:46:52.048Z,0.6
2022-12-27T03:52:03.093Z,0.8
2022-12-27T04:02:37.040Z,0.9
2022-12-27T04:07:47.786Z,1
2022-12-27T04:12:59.304Z,0.8
2022-12-27T04:18:12.571Z,1.2
2022-12-27T04:28:45.347Z,1.1
2022-12-27T04:50:02.235Z,1
2022-12-27T04:55:13.504Z,1
2022-12-27T05:00:30.506Z,0.9
2022-12-27T05:10:58.660Z,1
2022-12-27T05:16:10.379Z,1.2
2022-12-27T05:21:20.804Z,1.3
2022-12-27T05:42:34.374Z,1.7
2022-12-27T05:47:45.350Z,1.5
2022-12-27T05:52:56.709Z,1.3
2022-12-27T05:58:08.720Z,1.7
2022-12-27T06:03:18.123Z,1.6
2022-12-27T06:24:31.968Z,1.6
2022-12-27T06:35:05.016Z,2.5
2022-12-27T06:40:19.297Z,3.4
2022-12-27T06:45:31.486Z,4.7
2022-12-27T06:50:41.949Z,2.7
2022-12-27T07:01:16.411Z,5.2
2022-12-27T07:11:52.364Z,2
2022-12-27T07:22:26.756Z,2
2022-12-27T07:38:25.960Z,2.1
2022-12-27T07:43:38.504Z,7.5
2022-12-27T07:59:32.956Z,4.9
2022-12-27T08:04:44.734Z,3.5
2022-12-27T08:09:56.377Z,4.1
2022-12-27T08:20:29.290Z,4
2022-12-27T08:36:56.656Z,4
2022-12-27T08:57:37.882Z,3.9
2022-12-27T09:08:16.507Z,6.6
2022-12-27T09:13:28.388Z,4.9
2022-12-27T09:18:41.132Z,4.3
2022-12-27T09:23:52.151Z,6.8
2022-12-27T09:29:07.368Z,4.7
2022-12-27T09:45:02.724Z,5.7
2022-12-27T09:50:14.054Z,11.1
2022-12-27T09:55:25.432Z,5.1
2022-12-27T10:05:59.343Z,3.8
2022-12-27T10:11:14.738Z,4
2022-12-27T10:16:30.925Z,9.3
2022-12-27T10:21:43.697Z,9.4
2022-12-27T10:26:53.372Z,4.7
2022-12-27T10:32:04.643Z,1.4
2022-12-27T10:37:16.395Z,2.2
2022-12-27T10:42:28.021Z,1.6
2022-12-27T10:47:40.227Z,1.9
2022-12-27T10:52:58.116Z,1.2
2022-12-27T11:03:26.660Z,1.8
2022-12-27T11:08:38.748Z,2.2
2022-12-27T11:13:51.154Z,4.1
2022-12-27T11:19:02.162Z,1.1
2022-12-27T11:24:15.181Z,0.8
2022-12-27T11:29:27.319Z,1
2022-12-27T11:34:38.718Z,1.9
2022-12-27T11:39:50.793Z,2
2022-12-27T12:01:07.882Z,2.3
2022-12-27T12:11:41.020Z,1.8
2022-12-27T12:16:52.968Z,2.2
2022-12-27T12:22:02.788Z,1.4
2022-12-27T12:32:35.804Z,1.2
2022-12-27T12:37:46.787Z,1.8
2022-12-27T12:42:58.174Z,6.5
2022-12-27T12:48:09.144Z,5.3
2022-12-27T12:53:20.934Z,6.9
2022-12-27T12:58:37.360Z,1.4
2022-12-27T13:03:49.985Z,0.6
2022-12-27T13:09:03.399Z,0.5
2022-12-27T13:19:36.478Z,0.6
2022-12-27T13:24:53.219Z,1
2022-12-27T13:30:09.620Z,0.5
2022-12-27T13:35:20.745Z,0.5
2022-12-27T13:40:30.959Z,0.7
2022-12-27T13:45:42.738Z,2.5
2022-12-27T13:50:52.706Z,2.9
2022-12-27T13:56:55.054Z,1.2
2022-12-27T14:17:20.456Z,2.2
2022-12-27T14:22:32.307Z,2.6
2022-12-27T14:27:43.851Z,1.9
2022-12-27T14:32:55.805Z,1.5
2022-12-27T14:43:33.061Z,9
2022-12-27T14:48:45.255Z,1.7
2022-12-27T14:59:19.245Z,6.7
2022-12-27T15:04:35.402Z,12.2
2022-12-27T15:09:45.401Z,5.3
2022-12-27T15:31:02.023Z,3.3
2022-12-27T15:36:12.582Z,10.6
2022-12-27T15:41:24.083Z,3.6
2022-12-27T15:52:02.013Z,12.7
2022-12-27T15:57:16.416Z,4
2022-12-27T16:02:29.596Z,3.8
2022-12-27T16:07:45.600Z,2.8
2022-12-27T16:12:57.033Z,2.7
2022-12-27T16:18:07.595Z,3.8
2022-12-27T16:23:19.629Z,2.9
2022-12-27T16:28:30.125Z,5
2022-12-27T16:33:44.793Z,7.6
2022-12-27T16:38:57.816Z,17.6
2022-12-27T16:44:13.042Z,17.3
2022-12-27T16:49:25.242Z,7.7
2022-12-27T16:54:41.071Z,4
2022-12-27T17:05:14.179Z,10.1
2022-12-27T17:10:26.553Z,6.5
2022-12-27T17:15:50.044Z,10.1
2022-12-27T17:20:55.577Z,3.1
2022-12-27T17:26:11.778Z,8.8
2022-12-27T17:31:23.709Z,11.4
2022-12-27T17:42:01.920Z,5.5
2022-12-27T17:47:16.092Z,11.3
2022-12-27T17:57:46.370Z,14.9
2022-12-27T18:02:58.088Z,19.8
2022-12-27T18:08:09.255Z,13.3
2022-12-27T18:13:19.687Z,15.3
2022-12-27T18:18:31.914Z,15.3
2022-12-27T18:23:42.262Z,12.2
2022-12-27T18:28:53.665Z,5.9
2022-12-27T18:39:28.651Z,5.5
2022-12-27T18:44:40.655Z,5.5
2022-12-27T18:49:56.871Z,7.3
2022-12-27T18:55:06.435Z,5.9
2022-12-27T19:00:18.498Z,5.7
2022-12-27T19:10:51.499Z,10.5
2022-12-27T19:21:25.818Z,6.6
2022-12-27T19:26:34.724Z,5
2022-12-27T19:31:52.250Z,7.5
2022-12-27T19:37:02.182Z,7
2022-12-27T19:42:14.048Z,7.2
2022-12-27T19:47:25.572Z,7.4
2022-12-27T20:03:18.974Z,23.3
2022-12-27T20:08:34.243Z,19.2
2022-12-27T20:13:51.556Z,8.9
2022-12-27T20:19:03.456Z,7.2
2022-12-27T20:24:22.807Z,10.5
2022-12-27T20:29:32.885Z,7.9
2022-12-27T20:40:11.414Z,8.6
2022-12-27T20:45:38.273Z,7.1
2022-12-27T20:50:51.636Z,5.7
2022-12-27T20:55:57.948Z,5.4
2022-12-27T21:01:15.921Z,7.5
2022-12-27T21:06:23.331Z,6.4
2022-12-27T21:11:32.688Z,6.2
2022-12-27T21:22:07.091Z,7.3
2022-12-27T21:38:00.888Z,7.1
2022-12-27T21:43:13.027Z,5
2022-12-27T21:48:24.292Z,3.5
2022-12-27T21:58:57.646Z,2.9
2022-12-27T22:04:10.235Z,2.7
2022-12-27T22:09:21.408Z,4.3
2022-12-27T22:14:37.428Z,4
2022-12-27T22:19:44.863Z,5
2022-12-27T22:24:59.426Z,5.3
2022-12-27T22:30:14.760Z,4.5
2022-12-27T22:35:28.428Z,4.4
2022-12-27T22:46:01.652Z,4.8
2022-12-27T23:07:15.604Z,4.1
2022-12-27T23:12:26.779Z,3.9
2022-12-27T23:28:21.332Z,3.1
2022-12-27T23:38:52.103Z,3.1
2022-12-27T23:54:47.679Z,3
